FR-0043 weather

Centre Hospitalier W. Morey Heliport
Chalons-Sur-Saone, Burgundy, France

Public forecast

Using degrees Celsius for public forecast. Weather courtesy of forecast.io.

METAR (pilot weather report)

Closest report is Dole-Tavaux Airport, 28.5 nm (52.7 km) NE. Retrieved 2019/07/22 11:30 UTC (0 seconds ago):

LFGJ 221130Z AUTO 01004KT 280V070 CAVOK 31/15 Q1023 NOSIG

TAF (pilot weather forecast)

Forecast is more than 12 hours old.

Closest forecast is Dijon-Bourgogne Airport, 30.9 nm (57.3 km) NNE. Retrieved 2015/06/01 00:11 UTC (4 years ago):

TAF LFSD 010600Z 0100/0124 CNL